Time;durP1;ratioP1;P1;durP2;ratioP2;P2;SDS_P1;SDS_P2;PMS_P1;PMS_P2;Temp;Humidity;BMP_temperature;BMP_pressure;BME280_temperature;BME280_humidity;BME280_pressure;Samples;Min_cycle;Max_cycle;Signal;HPM_P1;HPM_P2
2020/12/23 00:01:18;;;;;;;5.05;1.75;;;25.60;64.30;;;;;;6364374;22;20449;-72
2020/12/23 00:03:45;;;;;;;6.00;1.73;;;25.60;64.30;;;;;;6364688;22;20020;-71
2020/12/23 00:06:11;;;;;;;3.60;1.20;;;25.60;64.30;;;;;;6363404;22;20002;-72
2020/12/23 00:08:38;;;;;;;3.72;1.48;;;25.60;64.20;;;;;;6364857;22;20075;-73
2020/12/23 00:11:04;;;;;;;5.00;2.25;;;25.60;64.10;;;;;;6362484;22;20459;-70
2020/12/23 00:13:31;;;;;;;11.23;4.68;;;25.50;63.80;;;;;;6364935;22;20037;-71
2020/12/23 00:15:58;;;;;;;10.05;3.80;;;25.50;63.20;;;;;;6364114;22;20325;-72
2020/12/23 00:18:36;;;;;;;20.40;4.95;;;25.40;62.60;;;;;;6363507;22;19998;-72
2020/12/23 00:21:11;;;;;;;12.73;3.83;;;25.40;62.20;;;;;;6337101;22;20003;-71
2020/12/23 00:23:37;;;;;;;11.82;3.75;;;25.40;61.80;;;;;;6335851;22;20051;-70
2020/12/23 00:26:13;;;;;;;10.88;3.65;;;25.30;61.50;;;;;;6365061;22;20002;-72
2020/12/23 00:28:58;;;;;;;8.27;2.97;;;25.30;61.40;;;;;;6336158;22;20034;-72
2020/12/23 00:31:25;;;;;;;13.03;3.70;;;25.30;61.30;;;;;;6364241;22;19994;-70
2020/12/23 00:33:53;;;;;;;14.02;4.07;;;25.30;61.30;;;;;;6363541;22;20047;-72
2020/12/23 00:36:20;;;;;;;11.30;3.90;;;25.30;61.30;;;;;;6364239;22;20087;-72
2020/12/23 00:38:51;;;;;;;9.95;3.17;;;25.20;61.20;;;;;;6364614;22;20020;-72
2020/12/23 00:41:18;;;;;;;13.63;4.28;;;25.20;61.20;;;;;;6335675;22;20010;-70
2020/12/23 00:43:44;;;;;;;14.65;5.38;;;25.20;61.20;;;;;;6364550;22;19998;-70
2020/12/23 00:46:13;;;;;;;22.98;12.77;;;25.10;61.10;;;;;;6364110;22;20002;-70
2020/12/23 00:48:41;;;;;;;19.23;11.55;;;25.20;61.20;;;;;;6363924;22;20437;-72
2020/12/23 00:51:13;;;;;;;15.80;9.32;;;25.10;61.10;;;;;;6364253;22;19999;-71
2020/12/23 00:53:43;;;;;;;15.68;7.53;;;25.10;61.10;;;;;;6336048;22;20038;-72
2020/12/23 00:56:15;;;;;;;15.45;5.32;;;25.10;61.10;;;;;;6364459;22;20010;-72
2020/12/23 00:58:41;;;;;;;16.00;4.95;;;25.00;61.20;;;;;;6335680;22;19994;-72
2020/12/23 01:01:08;;;;;;;12.07;4.25;;;25.00;61.30;;;;;;6364894;22;19999;-72
2020/12/23 01:03:34;;;;;;;10.35;4.10;;;25.00;61.30;;;;;;6364144;22;19999;-72
2020/12/23 01:06:05;;;;;;;11.50;3.58;;;25.00;61.40;;;;;;6363675;22;19998;-72
2020/12/23 01:08:31;;;;;;;9.15;3.92;;;25.00;61.40;;;;;;6364440;22;19998;-72
2020/12/23 01:10:58;;;;;;;12.23;4.25;;;24.90;61.40;;;;;;6362906;22;19995;-72
2020/12/23 01:13:24;;;;;;;13.32;5.25;;;24.90;61.60;;;;;;6364406;22;20018;-72
2020/12/23 01:16:28;;;;;;;10.25;4.18;;;24.90;61.60;;;;;;6363276;22;20006;-72
2020/12/23 01:18:54;;;;;;;10.55;3.40;;;24.90;61.60;;;;;;6336350;22;20030;-72
2020/12/23 01:21:21;;;;;;;9.45;3.08;;;24.90;61.80;;;;;;6365307;22;20310;-72
2020/12/23 01:23:48;;;;;;;11.10;3.85;;;24.80;62.10;;;;;;6363097;22;20009;-71
2020/12/23 01:26:14;;;;;;;7.00;3.10;;;24.80;62.50;;;;;;6363982;22;20006;-72
2020/12/23 01:28:49;;;;;;;7.72;2.90;;;24.80;62.90;;;;;;6362908;22;20002;-72
2020/12/23 01:31:16;;;;;;;6.07;2.72;;;24.80;63.20;;;;;;6337211;22;20026;-72
2020/12/23 01:33:42;;;;;;;6.80;2.50;;;24.80;63.50;;;;;;6361984;22;19998;-73
2020/12/23 01:36:14;;;;;;;6.10;3.38;;;24.80;64.40;;;;;;6364049;22;20010;-71
2020/12/23 01:38:40;;;;;;;5.45;2.58;;;24.80;63.80;;;;;;6336876;22;19999;-71
2020/12/23 01:41:11;;;;;;;8.45;6.10;;;24.80;63.70;;;;;;6363684;22;20002;-71
2020/12/23 01:43:58;;;;;;;16.25;10.68;;;24.80;63.70;;;;;;6336483;22;20002;-72
2020/12/23 01:46:33;;;;;;;11.93;8.70;;;24.80;63.80;;;;;;6363180;22;20006;-72
2020/12/23 01:49:09;;;;;;;11.88;6.82;;;24.80;63.90;;;;;;6337121;22;20003;-73
2020/12/23 01:51:37;;;;;;;12.15;5.13;;;24.80;64.10;;;;;;6364291;22;20071;-72
2020/12/23 01:54:04;;;;;;;8.20;4.07;;;24.80;64.10;;;;;;6362983;22;20041;-73
2020/12/23 01:56:32;;;;;;;9.98;4.18;;;24.70;64.20;;;;;;6364755;22;19999;-73
2020/12/23 01:59:00;;;;;;;6.63;4.45;;;24.70;64.30;;;;;;6363337;22;20536;-72
2020/12/23 02:01:30;;;;;;;12.35;3.92;;;24.70;64.30;;;;;;6364518;22;19998;-71
2020/12/23 02:03:57;;;;;;;15.98;3.47;;;24.70;64.40;;;;;;6365108;22;20002;-72
2020/12/23 02:06:23;;;;;;;10.07;2.92;;;24.70;64.50;;;;;;6365669;22;19998;-72
2020/12/23 02:08:54;;;;;;;8.85;2.90;;;24.70;64.50;;;;;;6366096;22;19998;-73
2020/12/23 02:11:21;;;;;;;6.03;3.38;;;24.70;64.50;;;;;;6365505;22;20028;-72
2020/12/23 02:13:47;;;;;;;6.18;3.00;;;24.70;64.50;;;;;;6365630;22;20003;-72
2020/12/23 02:16:15;;;;;;;8.05;2.75;;;24.70;64.60;;;;;;6364124;22;20081;-72
2020/12/23 02:18:43;;;;;;;8.77;7.65;;;24.60;64.60;;;;;;6365560;22;20059;-72
2020/12/23 02:21:10;;;;;;;13.88;9.60;;;24.60;64.70;;;;;;6365673;22;20417;-73
2020/12/23 02:23:39;;;;;;;10.80;7.07;;;24.60;64.70;;;;;;6365869;22;20002;-73
2020/12/23 02:26:06;;;;;;;8.00;5.85;;;24.60;64.80;;;;;;6365983;22;20066;-72
2020/12/23 02:28:32;;;;;;;10.23;3.85;;;24.60;64.80;;;;;;6364678;22;19991;-73
2020/12/23 02:31:01;;;;;;;7.15;3.30;;;24.60;64.90;;;;;;6366020;22;20056;-72
2020/12/23 02:33:29;;;;;;;6.07;2.88;;;24.60;65.00;;;;;;6363770;22;20055;-73
2020/12/23 02:35:56;;;;;;;6.28;2.45;;;24.50;65.00;;;;;;6365786;22;20017;-72
2020/12/23 02:38:22;;;;;;;7.05;2.30;;;24.50;65.10;;;;;;6364626;22;20005;-72
2020/12/23 02:40:50;;;;;;;4.57;2.15;;;24.50;65.00;;;;;;6337773;22;20041;-72
2020/12/23 02:43:17;;;;;;;7.65;2.58;;;24.40;64.70;;;;;;6365812;22;20059;-73
2020/12/23 02:45:44;;;;;;;7.53;3.22;;;24.50;64.60;;;;;;6365120;22;20430;-73
2020/12/23 02:48:11;;;;;;;5.55;2.85;;;24.50;64.40;;;;;;6366108;22;20324;-72
2020/12/23 02:50:37;;;;;;;10.45;2.20;;;24.40;64.20;;;;;;6336142;22;20329;-72
2020/12/23 02:53:04;;;;;;;10.85;3.20;;;24.40;64.10;;;;;;6365864;22;20015;-73
2020/12/23 02:55:30;;;;;;;6.65;2.30;;;24.40;63.90;;;;;;6363010;22;20018;-72
2020/12/23 02:57:57;;;;;;;6.65;2.47;;;24.40;63.80;;;;;;6365899;22;19994;-72
2020/12/23 03:00:24;;;;;;;10.55;2.55;;;24.30;63.60;;;;;;6364811;22;19998;-70
2020/12/23 03:02:51;;;;;;;9.02;2.38;;;24.30;63.50;;;;;;6364984;22;19998;-72
2020/12/23 03:05:18;;;;;;;8.82;4.63;;;24.20;63.30;;;;;;6336585;22;20006;-72
2020/12/23 03:07:44;;;;;;;11.82;6.35;;;24.20;63.20;;;;;;6363218;22;20002;-72
2020/12/23 03:10:11;;;;;;;13.48;7.88;;;24.20;63.00;;;;;;6364905;22;20005;-73
2020/12/23 03:12:39;;;;;;;14.48;7.47;;;24.20;63.00;;;;;;6364722;22;20047;-73
2020/12/23 03:15:10;;;;;;;7.55;3.92;;;24.20;62.90;;;;;;6365500;22;20006;-72
2020/12/23 03:17:37;;;;;;;9.32;3.60;;;24.10;62.90;;;;;;6336881;22;20085;-72
2020/12/23 03:20:05;;;;;;;12.90;3.33;;;24.10;62.90;;;;;;6365791;22;20002;-72
2020/12/23 03:22:32;;;;;;;10.73;3.42;;;24.10;62.90;;;;;;6366589;22;20051;-72
2020/12/23 03:24:59;;;;;;;10.70;3.30;;;24.10;62.90;;;;;;6359241;22;20008;-71
2020/12/23 03:27:25;;;;;;;11.40;3.05;;;24.00;62.90;;;;;;6365480;22;19998;-73
2020/12/23 03:29:52;;;;;;;13.60;2.88;;;24.00;63.60;;;;;;6364029;22;19994;-73
2020/12/23 03:32:19;;;;;;;12.57;3.67;;;24.00;62.90;;;;;;6365059;22;20017;-72
2020/12/23 03:34:46;;;;;;;9.13;2.60;;;24.00;62.90;;;;;;6364342;22;20403;-74
2020/12/23 03:37:13;;;;;;;15.50;2.70;;;24.00;63.00;;;;;;6336543;22;20030;-73
2020/12/23 03:39:40;;;;;;;8.25;2.85;;;24.00;63.00;;;;;;6364557;22;19998;-73
2020/12/23 03:42:07;;;;;;;10.98;2.92;;;23.90;63.00;;;;;;6363988;22;20495;-72
2020/12/23 03:44:34;;;;;;;9.48;2.33;;;23.90;63.10;;;;;;6364230;22;20059;-72
2020/12/23 03:47:01;;;;;;;10.23;2.90;;;23.90;63.20;;;;;;6362950;22;19998;-71
2020/12/23 03:49:27;;;;;;;9.73;2.67;;;23.90;63.00;;;;;;6365121;22;20002;-71
2020/12/23 03:51:54;;;;;;;9.45;2.85;;;23.90;63.30;;;;;;6363645;22;20011;-71
2020/12/23 03:54:22;;;;;;;10.60;3.00;;;23.90;63.30;;;;;;6363703;22;20395;-71
2020/12/23 03:56:48;;;;;;;10.23;3.25;;;23.90;63.40;;;;;;6364713;22;20009;-71
2020/12/23 03:59:15;;;;;;;10.63;2.80;;;23.90;63.40;;;;;;6364400;22;20459;-71
2020/12/23 04:01:42;;;;;;;7.65;2.80;;;23.90;63.50;;;;;;6365069;22;20326;-72
2020/12/23 04:04:08;;;;;;;10.85;2.80;;;23.90;63.60;;;;;;6363529;22;20075;-71
2020/12/23 04:06:35;;;;;;;15.60;4.93;;;23.90;63.60;;;;;;6365127;22;20025;-70
2020/12/23 04:09:02;;;;;;;9.85;3.50;;;23.90;63.70;;;;;;6364145;22;19998;-73
2020/12/23 04:11:30;;;;;;;8.07;3.55;;;23.90;63.80;;;;;;6364555;22;20006;-73
2020/12/23 04:13:57;;;;;;;10.10;4.68;;;23.90;63.90;;;;;;6364738;22;20417;-73
2020/12/23 04:16:24;;;;;;;7.40;2.95;;;23.90;64.00;;;;;;6364372;22;20002;-73
2020/12/23 04:18:51;;;;;;;10.07;3.63;;;23.90;64.10;;;;;;6365113;22;20006;-72
2020/12/23 04:21:19;;;;;;;9.85;3.47;;;23.90;64.10;;;;;;6363119;22;20184;-73
2020/12/23 04:23:46;;;;;;;9.88;2.47;;;23.90;64.10;;;;;;6336282;22;20006;-73
2020/12/23 04:26:12;;;;;;;16.90;4.43;;;23.90;64.10;;;;;;6363808;22;20072;-72
2020/12/23 04:28:39;;;;;;;9.15;2.90;;;24.00;64.10;;;;;;6363421;22;20425;-74
2020/12/23 04:31:06;;;;;;;15.52;2.83;;;24.00;64.10;;;;;;6362914;22;19995;-72
2020/12/23 04:33:32;;;;;;;11.27;3.47;;;23.90;63.90;;;;;;6363508;22;20013;-74
2020/12/23 04:35:59;;;;;;;11.20;2.70;;;23.90;63.90;;;;;;6364157;22;20097;-73
2020/12/23 04:38:25;;;;;;;12.05;2.80;;;23.90;63.80;;;;;;6364343;22;20087;-75
2020/12/23 04:40:55;;;;;;;15.15;4.75;;;23.90;63.70;;;;;;6364785;22;19998;-78
2020/12/23 04:43:21;;;;;;;11.52;2.78;;;23.90;63.70;;;;;;6363535;22;20033;-75
2020/12/23 04:45:48;;;;;;;15.55;7.40;;;23.90;63.60;;;;;;6364719;22;19994;-74
2020/12/23 04:48:19;;;;;;;16.83;8.38;;;23.90;63.60;;;;;;6363846;22;20069;-72
2020/12/23 04:50:52;;;;;;;10.05;4.57;;;23.90;63.60;;;;;;6363715;22;20034;-73
2020/12/23 04:53:19;;;;;;;11.48;3.83;;;24.00;63.60;;;;;;6365017;22;20014;-72
2020/12/23 04:55:46;;;;;;;13.10;3.67;;;24.00;63.60;;;;;;6362452;22;20010;-72
2020/12/23 04:58:13;;;;;;;8.32;3.05;;;24.00;63.50;;;;;;6364665;22;20066;-73
2020/12/23 05:00:40;;;;;;;9.00;2.83;;;24.00;63.40;;;;;;6362965;22;19999;-73
2020/12/23 05:03:07;;;;;;;10.88;3.00;;;24.00;63.30;;;;;;6364644;22;20006;-73
2020/12/23 05:05:33;;;;;;;10.10;2.63;;;24.00;63.10;;;;;;6335028;22;19998;-73
2020/12/23 05:08:00;;;;;;;8.93;2.05;;;24.00;63.00;;;;;;6364129;22;20002;-73
2020/12/23 05:10:29;;;;;;;8.90;2.95;;;24.00;62.80;;;;;;6363860;22;20002;-74
2020/12/23 05:12:57;;;;;;;11.32;2.90;;;24.00;62.80;;;;;;6363238;22;20013;-73
2020/12/23 05:15:24;;;;;;;7.35;2.88;;;24.00;62.70;;;;;;6364616;22;20051;-74
2020/12/23 05:17:52;;;;;;;14.05;2.25;;;24.00;62.70;;;;;;6335069;22;20006;-73
2020/12/23 05:20:19;;;;;;;9.35;2.50;;;24.00;62.60;;;;;;6365159;22;20022;-74
2020/12/23 05:22:48;;;;;;;5.68;2.08;;;23.90;62.60;;;;;;6363299;22;20328;-70
2020/12/23 05:25:22;;;;;;;9.95;3.03;;;23.90;62.60;;;;;;6364502;22;20387;-73
2020/12/23 05:27:49;;;;;;;5.75;2.13;;;23.90;62.60;;;;;;6337241;22;20010;-71
2020/12/23 05:30:19;;;;;;;5.50;3.38;;;23.90;62.60;;;;;;6334559;22;20043;-71
2020/12/23 05:32:47;;;;;;;12.52;9.63;;;23.90;62.60;;;;;;6336955;22;20002;-71
2020/12/23 05:35:19;;;;;;;15.82;11.80;;;23.90;62.60;;;;;;6362523;22;20042;-71
2020/12/23 05:37:45;;;;;;;10.07;8.80;;;23.90;62.60;;;;;;6338565;22;20006;-70
2020/12/23 05:40:13;;;;;;;14.20;7.07;;;24.00;62.70;;;;;;6365621;22;20022;-72
2020/12/23 05:42:41;;;;;;;6.00;3.05;;;24.00;62.60;;;;;;6366299;22;20037;-74
2020/12/23 05:45:08;;;;;;;9.60;3.33;;;24.00;62.70;;;;;;6366114;22;20497;-72
2020/12/23 05:47:36;;;;;;;9.90;2.92;;;24.00;62.60;;;;;;6365170;22;20077;-70
2020/12/23 05:50:09;;;;;;;11.82;3.78;;;24.00;62.40;;;;;;6365436;22;20002;-71
2020/12/23 05:52:36;;;;;;;9.95;2.60;;;24.00;62.30;;;;;;6364673;22;20089;-72
2020/12/23 05:55:13;;;;;;;24.00;17.83;;;24.00;62.10;;;;;;6366344;22;20070;-71
2020/12/23 05:57:40;;;;;;;18.17;12.73;;;24.00;62.00;;;;;;6365535;22;20003;-70
2020/12/23 06:00:06;;;;;;;12.68;6.93;;;24.00;61.90;;;;;;6366544;22;19999;-71
2020/12/23 06:02:41;;;;;;;9.60;4.35;;;24.00;61.80;;;;;;6366050;22;20002;-71
2020/12/23 06:05:09;;;;;;;12.15;3.75;;;24.10;61.70;;;;;;6364118;22;19994;-72
2020/12/23 06:07:41;;;;;;;7.70;3.08;;;24.10;61.60;;;;;;6365071;22;20012;-71
2020/12/23 06:10:13;;;;;;;4.65;2.10;;;24.10;61.30;;;;;;6363176;22;20496;-72
2020/12/23 06:12:47;;;;;;;9.45;2.63;;;24.10;61.20;;;;;;6364703;22;20093;-73
2020/12/23 06:15:29;;;;;;;5.57;1.58;;;24.10;60.90;;;;;;6364522;22;20010;-71
2020/12/23 06:17:59;;;;;;;7.72;1.42;;;24.10;60.70;;;;;;6336832;22;20006;-72
2020/12/23 06:20:29;;;;;;;5.47;1.70;;;24.10;60.50;;;;;;6365417;22;20083;-70
2020/12/23 06:22:56;;;;;;;11.60;2.40;;;24.10;60.40;;;;;;6363042;22;20014;-71
2020/12/23 06:25:24;;;;;;;7.40;2.00;;;24.10;60.40;;;;;;6360612;22;19998;-71
2020/12/23 06:27:53;;;;;;;7.32;2.80;;;24.10;60.20;;;;;;6363398;22;20002;-71
2020/12/23 06:30:21;;;;;;;7.88;2.45;;;24.10;60.10;;;;;;6364099;22;19998;-71
2020/12/23 06:32:47;;;;;;;8.70;1.67;;;24.20;60.10;;;;;;6364505;22;20551;-71
2020/12/23 06:35:14;;;;;;;7.57;2.33;;;24.20;59.90;;;;;;6363041;22;20763;-70
2020/12/23 06:37:40;;;;;;;4.40;1.42;;;24.20;59.70;;;;;;6363460;22;20079;-71
2020/12/23 06:40:11;;;;;;;6.15;2.17;;;24.20;59.40;;;;;;6361569;22;19999;-71
2020/12/23 06:42:46;;;;;;;6.35;1.90;;;24.20;59.10;;;;;;6364825;22;20009;-71
2020/12/23 06:45:13;;;;;;;3.90;1.77;;;24.20;58.90;;;;;;6363257;22;20003;-70
2020/12/23 06:47:41;;;;;;;4.38;2.10;;;24.20;59.40;;;;;;6364195;22;20006;-70
2020/12/23 06:50:28;;;;;;;8.88;2.15;;;24.20;58.70;;;;;;6362568;22;20002;-71
2020/12/23 06:52:54;;;;;;;5.13;1.30;;;24.30;58.60;;;;;;6363034;22;20041;-71
2020/12/23 06:55:41;;;;;;;5.57;1.60;;;24.30;58.50;;;;;;6364039;22;20017;-71
2020/12/23 06:58:07;;;;;;;7.43;2.50;;;24.30;58.40;;;;;;6362522;22;20067;-71
2020/12/23 07:00:35;;;;;;;8.95;2.00;;;24.30;58.20;;;;;;6364359;22;20010;-71
2020/12/23 07:03:04;;;;;;;6.10;1.60;;;24.30;58.00;;;;;;6364201;22;20052;-71
2020/12/23 07:05:36;;;;;;;3.88;1.33;;;24.30;57.80;;;;;;6364387;22;20005;-71
2020/12/23 07:08:06;;;;;;;4.63;2.13;;;24.40;57.60;;;;;;6363279;22;20013;-70
2020/12/23 07:10:47;;;;;;;7.30;2.40;;;24.40;57.40;;;;;;6363201;22;20002;-73
2020/12/23 07:13:22;;;;;;;5.25;1.50;;;24.40;57.20;;;;;;6337671;22;20006;-70
2020/12/23 07:15:55;;;;;;;;;;;24.60;57.10;;;;;;6337398;22;20019;-70
2020/12/23 07:18:29;;;;;;;7.70;1.50;;;24.60;56.90;;;;;;6363776;22;19908;-71
2020/12/23 07:21:02;;;;;;;4.05;1.00;;;24.60;56.60;;;;;;6336957;22;20322;-70
2020/12/23 07:23:33;;;;;;;6.85;1.77;;;24.60;56.30;;;;;;6363391;22;20021;-71
2020/12/23 07:26:11;;;;;;;4.13;1.05;;;24.70;56.00;;;;;;6364912;22;20006;-70
2020/12/23 07:28:40;;;;;;;7.38;1.08;;;24.70;55.80;;;;;;6363807;22;20033;-70
2020/12/23 07:31:08;;;;;;;2.00;1.00;;;24.70;55.60;;;;;;6364099;22;20026;-71
2020/12/23 07:33:37;;;;;;;1.67;0.95;;;24.70;55.50;;;;;;6365149;22;20353;-70
2020/12/23 07:36:05;;;;;;;3.78;1.23;;;24.80;55.40;;;;;;6363251;22;20086;-70
2020/12/23 07:38:35;;;;;;;8.30;2.03;;;24.70;55.30;;;;;;6364768;22;20002;-70
2020/12/23 07:41:03;;;;;;;6.13;1.10;;;24.70;55.10;;;;;;6363169;22;20432;-70
2020/12/23 07:43:30;;;;;;;4.80;1.40;;;24.70;55.00;;;;;;6364750;22;19999;-70
2020/12/23 07:45:57;;;;;;;3.45;1.40;;;24.70;54.80;;;;;;6363965;22;20090;-70
2020/12/23 07:48:28;;;;;;;4.07;1.55;;;24.70;54.70;;;;;;6364077;22;20033;-70
2020/12/23 07:50:56;;;;;;;6.63;1.88;;;24.70;54.70;;;;;;6364422;22;20006;-70
2020/12/23 07:53:25;;;;;;;4.75;1.30;;;24.80;54.60;;;;;;6362835;22;20017;-71
2020/12/23 07:55:56;;;;;;;5.30;0.90;;;24.80;54.50;;;;;;6364388;22;20568;-70
2020/12/23 07:58:22;;;;;;;7.78;1.30;;;24.90;54.50;;;;;;6362626;22;20029;-70
2020/12/23 08:00:49;;;;;;;3.97;1.17;;;25.00;54.40;;;;;;6364884;22;20066;-69
2020/12/23 08:03:25;;;;;;;3.90;1.02;;;25.00;54.20;;;;;;6363814;22;20013;-70
2020/12/23 08:06:02;;;;;;;3.92;1.30;;;25.10;54.00;;;;;;6362936;22;20068;-70
2020/12/23 08:08:29;;;;;;;3.45;0.80;;;25.10;53.80;;;;;;6365786;22;20418;-70
2020/12/23 08:10:55;;;;;;;7.78;1.15;;;25.10;53.70;;;;;;6362753;22;20017;-69
2020/12/23 08:13:28;;;;;;;2.50;0.80;;;25.20;53.80;;;;;;6364501;22;20043;-70
2020/12/23 08:16:12;;;;;;;4.07;1.40;;;25.30;53.80;;;;;;6362789;22;20006;-69
2020/12/23 08:18:39;;;;;;;3.35;0.98;;;25.30;53.60;;;;;;6364259;22;20053;-70
2020/12/23 08:21:20;;;;;;;2.65;0.55;;;25.40;53.60;;;;;;6335730;22;20371;-69
2020/12/23 08:23:52;;;;;;;7.60;1.35;;;25.40;53.50;;;;;;6334597;22;20010;-69
2020/12/23 08:26:21;;;;;;;6.70;1.35;;;25.40;53.50;;;;;;6364262;22;19998;-70
2020/12/23 08:28:48;;;;;;;5.53;1.90;;;25.40;53.40;;;;;;6335641;22;20040;-70
2020/12/23 08:31:18;;;;;;;4.93;1.15;;;25.50;53.40;;;;;;6364431;22;20459;-69
2020/12/23 08:33:48;;;;;;;1.83;0.90;;;25.50;53.30;;;;;;6363634;22;19998;-69
2020/12/23 08:36:15;;;;;;;3.47;1.90;;;25.50;53.30;;;;;;6362973;22;20010;-69
2020/12/23 08:38:42;;;;;;;3.55;1.02;;;25.50;53.30;;;;;;6364221;22;19999;-69
2020/12/23 08:41:21;;;;;;;3.47;0.60;;;25.50;53.50;;;;;;6362994;22;20003;-70
2020/12/23 08:43:50;;;;;;;6.22;1.20;;;25.50;53.50;;;;;;6364100;22;20371;-71
2020/12/23 08:46:27;;;;;;;3.08;0.85;;;25.60;53.60;;;;;;6363341;22;19998;-70
2020/12/23 08:48:56;;;;;;;2.40;0.68;;;25.60;53.80;;;;;;6363286;22;20299;-70
2020/12/23 08:51:26;;;;;;;4.65;0.90;;;25.60;53.80;;;;;;6363782;22;20037;-70
2020/12/23 08:53:54;;;;;;;2.42;0.65;;;25.70;53.80;;;;;;6362341;22;20014;-70
2020/12/23 08:56:25;;;;;;;1.25;0.90;;;25.70;53.90;;;;;;6364316;22;20021;-69
2020/12/23 08:58:59;;;;;;;2.38;0.60;;;25.70;53.90;;;;;;6363623;22;20433;-70
2020/12/23 09:01:26;;;;;;;5.15;0.82;;;25.70;53.90;;;;;;6364008;22;20443;-70
2020/12/23 09:03:58;;;;;;;1.85;0.70;;;25.80;54.00;;;;;;6362754;22;19995;-70
2020/12/23 09:06:25;;;;;;;2.00;0.40;;;25.80;53.80;;;;;;6335184;22;19997;-70
2020/12/23 09:08:52;;;;;;;1.08;0.43;;;25.80;53.80;;;;;;6364580;22;20441;-69
2020/12/23 09:11:20;;;;;;;1.75;0.47;;;25.80;53.60;;;;;;6364111;22;20047;-69
2020/12/23 09:13:47;;;;;;;2.10;0.47;;;25.90;53.20;;;;;;6338473;22;20085;-70
2020/12/23 09:16:19;;;;;;;1.35;0.32;;;25.90;53.10;;;;;;6364677;22;20010;-69
2020/12/23 09:18:51;;;;;;;3.15;0.40;;;26.00;52.70;;;;;;6338341;22;20349;-70
2020/12/23 09:21:19;;;;;;;1.60;0.50;;;26.00;52.60;;;;;;6365589;22;20006;-70
2020/12/23 09:23:46;;;;;;;0.68;0.68;;;26.00;52.50;;;;;;6365530;22;19999;-70
2020/12/23 09:26:19;;;;;;;0.77;0.30;;;26.00;52.00;;;;;;6366301;22;20005;-70
2020/12/23 09:28:46;;;;;;;1.27;0.50;;;26.00;51.80;;;;;;6337049;22;20018;-70
2020/12/23 09:31:14;;;;;;;1.38;0.57;;;26.00;51.90;;;;;;6366234;22;20009;-70
2020/12/23 09:33:42;;;;;;;3.13;1.15;;;26.00;52.00;;;;;;6364427;22;20067;-70
2020/12/23 09:36:09;;;;;;;1.75;0.45;;;26.10;52.10;;;;;;6365940;22;20013;-70
2020/12/23 09:38:36;;;;;;;1.05;0.70;;;26.10;52.20;;;;;;6365379;22;20020;-70
2020/12/23 09:41:07;;;;;;;1.17;0.43;;;26.10;52.10;;;;;;6365134;22;20317;-70
2020/12/23 09:43:35;;;;;;;0.93;0.32;;;26.20;52.00;;;;;;6365917;22;20090;-70
2020/12/23 09:46:06;;;;;;;3.75;0.75;;;26.20;51.80;;;;;;6364360;22;20001;-70
2020/12/23 09:48:33;;;;;;;3.05;0.73;;;26.20;51.50;;;;;;6365532;22;19998;-71
2020/12/23 09:50:59;;;;;;;2.55;0.68;;;26.30;51.50;;;;;;6364627;22;20430;-71
2020/12/23 09:53:27;;;;;;;3.22;0.70;;;26.30;51.20;;;;;;6366208;22;20059;-70
2020/12/23 09:55:55;;;;;;;0.75;0.40;;;26.40;51.10;;;;;;6365673;22;20056;-71
2020/12/23 09:58:21;;;;;;;1.20;0.40;;;26.40;50.90;;;;;;6359922;22;19998;-71
2020/12/23 10:00:51;;;;;;;0.38;0.30;;;26.40;50.40;;;;;;6364988;22;20332;-70
2020/12/23 10:03:18;;;;;;;0.82;0.30;;;26.40;50.40;;;;;;6364085;22;19998;-70
2020/12/23 10:05:46;;;;;;;1.00;0.50;;;26.30;50.40;;;;;;6337469;22;20390;-70
2020/12/23 10:08:13;;;;;;;0.82;0.32;;;26.30;50.50;;;;;;6364145;22;20058;-70
2020/12/23 10:10:41;;;;;;;2.63;0.57;;;26.20;50.50;;;;;;6365301;22;20010;-70
2020/12/23 10:13:08;;;;;;;0.80;0.35;;;26.20;50.60;;;;;;6337307;22;20321;-70
2020/12/23 10:15:35;;;;;;;1.38;0.60;;;26.20;50.70;;;;;;6335676;22;20808;-70
2020/12/23 10:18:02;;;;;;;2.28;0.60;;;26.20;50.90;;;;;;6365959;22;20002;-70
2020/12/23 10:20:28;;;;;;;2.28;0.50;;;26.20;51.10;;;;;;6364150;22;20002;-71
2020/12/23 10:22:57;;;;;;;2.22;0.73;;;26.10;51.30;;;;;;6364301;22;19998;-70
2020/12/23 10:25:43;;;;;;;1.17;0.60;;;26.10;51.30;;;;;;6364637;22;19990;-70
2020/12/23 10:28:11;;;;;;;2.97;1.02;;;26.10;52.10;;;;;;6365250;22;20002;-70
2020/12/23 10:30:37;;;;;;;4.25;0.60;;;26.10;51.60;;;;;;6363940;22;20422;-69
2020/12/23 10:33:04;;;;;;;1.88;0.50;;;26.10;51.70;;;;;;6364776;22;19994;-70
2020/12/23 10:35:31;;;;;;;2.80;0.60;;;26.10;51.60;;;;;;6366245;22;20018;-71
2020/12/23 10:37:58;;;;;;;2.25;0.60;;;26.10;51.60;;;;;;6364352;22;20056;-70
2020/12/23 10:40:25;;;;;;;2.75;0.60;;;26.10;51.30;;;;;;6365248;22;20005;-71
2020/12/23 10:42:56;;;;;;;1.67;0.77;;;26.10;51.10;;;;;;6363835;22;20003;-71
2020/12/23 10:45:22;;;;;;;1.02;0.60;;;26.10;51.00;;;;;;6337803;22;20006;-70
2020/12/23 10:47:49;;;;;;;3.08;0.50;;;26.10;51.00;;;;;;6363743;22;20002;-71
2020/12/23 10:50:18;;;;;;;3.17;0.43;;;26.20;51.00;;;;;;6365005;22;20369;-72
2020/12/23 10:52:45;;;;;;;2.78;0.60;;;26.30;51.00;;;;;;6338572;22;20113;-72
2020/12/23 10:55:13;;;;;;;2.20;1.50;;;26.30;51.00;;;;;;6364407;22;20011;-71
2020/12/23 10:57:39;;;;;;;3.00;1.80;;;26.30;51.00;;;;;;6364763;22;19994;-70
2020/12/23 11:00:07;;;;;;;1.35;1.17;;;26.30;51.00;;;;;;6363612;22;20423;-70
2020/12/23 11:02:33;;;;;;;1.40;0.68;;;26.30;51.00;;;;;;6335955;22;20425;-71
2020/12/23 11:05:00;;;;;;;4.68;1.20;;;26.40;51.00;;;;;;6363830;22;20059;-71
2020/12/23 11:07:27;;;;;;;2.15;0.57;;;26.50;51.10;;;;;;6365071;22;20001;-71
2020/12/23 11:09:53;;;;;;;1.45;0.55;;;26.40;51.10;;;;;;6365196;22;20055;-71
2020/12/23 11:12:20;;;;;;;1.63;0.80;;;26.40;51.30;;;;;;6363600;22;20002;-72
2020/12/23 11:14:47;;;;;;;3.47;0.85;;;26.50;51.40;;;;;;6337637;22;20147;-72
2020/12/23 11:17:14;;;;;;;2.80;0.80;;;26.50;51.40;;;;;;6335762;22;20006;-71
2020/12/23 11:19:40;;;;;;;1.70;0.70;;;26.50;51.60;;;;;;6365109;22;19994;-70
2020/12/23 11:22:07;;;;;;;4.07;0.90;;;26.50;51.50;;;;;;6364313;22;19998;-70
2020/12/23 11:24:33;;;;;;;4.22;0.85;;;26.50;51.40;;;;;;6365159;22;19995;-70
2020/12/23 11:26:59;;;;;;;1.55;1.00;;;26.50;51.30;;;;;;6364945;22;20021;-70
2020/12/23 11:29:34;;;;;;;2.25;0.50;;;26.50;51.10;;;;;;6364390;22;19998;-71
2020/12/23 11:32:09;;;;;;;;;;;26.50;51.20;;;;;;6337655;22;19998;-70
2020/12/23 11:34:36;;;;;;;2.78;0.60;;;26.40;51.20;;;;;;6335265;22;19913;-71
2020/12/23 11:37:03;;;;;;;2.60;0.32;;;26.40;51.40;;;;;;6364533;22;20026;-71
2020/12/23 11:39:29;;;;;;;1.20;0.95;;;26.30;51.50;;;;;;6364124;22;19998;-71
2020/12/23 11:42:02;;;;;;;2.28;0.45;;;26.30;51.60;;;;;;6364670;22;20009;-70
2020/12/23 11:44:29;;;;;;;2.25;0.40;;;26.40;51.70;;;;;;6364630;22;20002;-70
2020/12/23 11:46:57;;;;;;;1.55;1.40;;;26.40;51.70;;;;;;6335099;22;20003;-69
2020/12/23 11:49:23;;;;;;;1.40;0.40;;;26.40;51.70;;;;;;6364953;22;19994;-71
2020/12/23 11:51:51;;;;;;;1.23;0.47;;;26.40;51.70;;;;;;6362985;22;20025;-71
2020/12/23 11:54:18;;;;;;;0.52;0.45;;;26.50;51.80;;;;;;6364128;22;20386;-70
2020/12/23 11:56:46;;;;;;;1.35;0.80;;;26.40;51.70;;;;;;6363470;22;19999;-70
2020/12/23 11:59:14;;;;;;;2.60;0.65;;;26.50;51.60;;;;;;6364254;22;20025;-70
2020/12/23 12:01:40;;;;;;;2.80;0.80;;;26.50;51.60;;;;;;6364313;22;19994;-71
2020/12/23 12:04:11;;;;;;;1.70;0.65;;;26.50;51.60;;;;;;6362385;22;20026;-69
2020/12/23 12:06:39;;;;;;;2.50;1.13;;;26.50;51.60;;;;;;6365437;22;20307;-70
2020/12/23 12:09:06;;;;;;;1.17;0.40;;;26.50;51.50;;;;;;6363771;22;20022;-70
2020/12/23 12:11:32;;;;;;;0.88;0.70;;;26.50;51.50;;;;;;6363776;22;19999;-70
2020/12/23 12:13:59;;;;;;;2.30;1.00;;;26.50;51.60;;;;;;6362320;22;20418;-69
2020/12/23 12:16:26;;;;;;;1.65;0.70;;;26.50;51.60;;;;;;6336142;22;20010;-70
2020/12/23 12:18:52;;;;;;;6.43;0.90;;;26.50;51.70;;;;;;6364669;22;20322;-70
2020/12/23 12:21:19;;;;;;;1.60;0.50;;;26.40;51.70;;;;;;6363253;22;20005;-70
2020/12/23 12:23:45;;;;;;;2.33;0.90;;;26.50;51.90;;;;;;6363985;22;20006;-69
2020/12/23 12:26:12;;;;;;;3.97;1.13;;;26.50;51.90;;;;;;6362885;22;19999;-70
2020/12/23 12:28:38;;;;;;;1.23;0.60;;;26.40;51.90;;;;;;6363898;22;20010;-70
2020/12/23 12:31:05;;;;;;;3.35;1.20;;;26.40;51.90;;;;;;6363043;22;20005;-71
2020/12/23 12:33:31;;;;;;;2.30;0.90;;;26.40;52.00;;;;;;6364727;22;20006;-71
2020/12/23 12:35:58;;;;;;;2.92;0.60;;;26.40;52.00;;;;;;6364280;22;20033;-72
2020/12/23 12:38:25;;;;;;;7.82;1.20;;;26.30;52.00;;;;;;6363331;22;20050;-70
2020/12/23 12:40:51;;;;;;;5.68;1.50;;;26.30;52.20;;;;;;6364186;22;20005;-71
2020/12/23 12:43:18;;;;;;;2.78;0.95;;;26.20;52.20;;;;;;6363448;22;20002;-71
2020/12/23 12:45:44;;;;;;;3.70;0.93;;;26.20;52.40;;;;;;6363871;22;20365;-71
2020/12/23 12:48:11;;;;;;;7.05;1.92;;;26.20;52.60;;;;;;6362765;22;19999;-70
2020/12/23 12:50:37;;;;;;;1.73;0.90;;;26.10;52.70;;;;;;6364455;22;20002;-70
2020/12/23 12:53:04;;;;;;;2.55;1.00;;;26.10;52.80;;;;;;6363496;22;20077;-71